Time;durP1;ratioP1;P1;durP2;ratioP2;P2;SDS_P1;SDS_P2;PMS_P1;PMS_P2;Temp;Humidity;BMP_temperature;BMP_pressure;BME280_temperature;BME280_humidity;BME280_pressure;Samples;Min_cycle;Max_cycle;Signal;HPM_P1;HPM_P2
2024/02/29 00:01:09;;;;;;;0.00;0.00;;;23.10;49.80;;;;;;5011815;28;20252;-45
2024/02/29 00:03:40;;;;;;;0.00;0.00;;;23.10;49.80;;;;;;5011749;28;20211;-45
2024/02/29 00:06:12;;;;;;;0.00;0.00;;;23.10;49.70;;;;;;5011337;28;20235;-41
2024/02/29 00:08:43;;;;;;;0.00;0.00;;;23.10;49.70;;;;;;5011354;28;20200;-41
2024/02/29 00:11:14;;;;;;;0.10;0.10;;;23.20;49.70;;;;;;5011475;28;20223;-44
2024/02/29 00:13:44;;;;;;;0.00;0.00;;;23.20;49.70;;;;;;5011394;28;20197;-42
2024/02/29 00:16:15;;;;;;;0.00;0.00;;;23.20;49.70;;;;;;5010704;28;20201;-45
2024/02/29 00:18:46;;;;;;;0.00;0.00;;;23.30;49.80;;;;;;5011066;28;20197;-44
2024/02/29 00:21:18;;;;;;;0.00;0.00;;;23.30;49.80;;;;;;5014210;28;20633;-41
2024/02/29 00:23:49;;;;;;;0.03;0.03;;;23.30;49.70;;;;;;5015474;28;20201;-47
2024/02/29 00:26:23;;;;;;;0.00;0.00;;;23.30;49.70;;;;;;5015221;28;20636;-44
2024/02/29 00:28:53;;;;;;;0.00;0.00;;;23.40;49.80;;;;;;5015109;28;20205;-44
2024/02/29 00:31:24;;;;;;;0.00;0.00;;;23.40;49.70;;;;;;5014872;28;20561;-42
2024/02/29 00:33:55;;;;;;;0.00;0.00;;;23.40;49.70;;;;;;5007771;28;20198;-42
2024/02/29 00:36:27;;;;;;;0.10;0.10;;;23.50;49.80;;;;;;5000412;28;20205;-46
2024/02/29 00:38:58;;;;;;;0.00;0.00;;;23.50;49.70;;;;;;5014499;28;20197;-43
2024/02/29 00:41:29;;;;;;;0.00;0.00;;;23.50;49.70;;;;;;5014399;28;20219;-45
2024/02/29 00:43:59;;;;;;;0.00;0.00;;;23.50;49.80;;;;;;5014891;28;20205;-44
2024/02/29 00:46:30;;;;;;;0.00;0.00;;;23.60;49.70;;;;;;5015012;28;20221;-43
2024/02/29 00:49:01;;;;;;;0.00;0.00;;;23.60;49.70;;;;;;5014562;28;20197;-45
2024/02/29 00:51:33;;;;;;;0.00;0.00;;;23.70;49.70;;;;;;5013718;28;20243;-44
2024/02/29 00:54:04;;;;;;;0.00;0.00;;;23.70;49.60;;;;;;5014080;28;20196;-42
2024/02/29 00:56:35;;;;;;;0.10;0.10;;;23.70;49.60;;;;;;5013876;28;20192;-45
2024/02/29 00:59:05;;;;;;;0.00;0.00;;;23.70;49.60;;;;;;5013911;28;20193;-43
2024/02/29 01:01:36;;;;;;;0.00;0.00;;;23.70;49.40;;;;;;5014601;28;20197;-44
2024/02/29 01:04:07;;;;;;;0.00;0.00;;;23.80;49.60;;;;;;5014515;28;20332;-42
2024/02/29 01:06:39;;;;;;;0.00;0.00;;;23.80;49.70;;;;;;5014430;28;20233;-42
2024/02/29 01:09:10;;;;;;;0.05;0.05;;;23.80;49.70;;;;;;5014280;28;20193;-44
2024/02/29 01:11:41;;;;;;;0.00;0.00;;;23.80;49.80;;;;;;5014361;28;20226;-41
2024/02/29 01:14:12;;;;;;;0.10;0.10;;;23.90;49.80;;;;;;5014375;28;20196;-44
2024/02/29 01:16:42;;;;;;;0.00;0.00;;;23.90;49.70;;;;;;5013685;28;20200;-46
2024/02/29 01:19:13;;;;;;;0.00;0.00;;;23.90;49.50;;;;;;5010645;28;20642;-43
2024/02/29 01:21:46;;;;;;;0.10;0.10;;;23.90;49.50;;;;;;5013837;28;20197;-44
2024/02/29 01:24:16;;;;;;;0.00;0.00;;;24.00;49.70;;;;;;5014362;28;20205;-44
2024/02/29 01:26:47;;;;;;;0.10;0.10;;;24.00;49.60;;;;;;5014683;28;20224;-44
2024/02/29 01:29:18;;;;;;;0.00;0.00;;;24.00;49.50;;;;;;5014090;28;20208;-46
2024/02/29 01:31:48;;;;;;;0.00;0.00;;;24.00;49.50;;;;;;5009391;28;20237;-44
2024/02/29 01:34:19;;;;;;;0.00;0.00;;;24.00;49.50;;;;;;5003249;28;20731;-48
2024/02/29 01:36:52;;;;;;;0.00;0.00;;;24.00;49.50;;;;;;5013135;28;20731;-44
2024/02/29 01:39:23;;;;;;;0.10;0.10;;;24.10;49.50;;;;;;5013590;28;20204;-44
2024/02/29 01:41:55;;;;;;;0.00;0.00;;;24.10;49.60;;;;;;5013384;28;20669;-46
2024/02/29 01:44:26;;;;;;;0.00;0.00;;;24.10;49.60;;;;;;5013415;28;20596;-43
2024/02/29 01:46:57;;;;;;;0.00;0.00;;;24.10;49.60;;;;;;5013667;28;20302;-45
2024/02/29 01:49:29;;;;;;;0.00;0.00;;;24.10;49.60;;;;;;5013766;28;20204;-44
2024/02/29 01:52:01;;;;;;;0.00;0.00;;;24.10;49.60;;;;;;5013480;28;20205;-45
2024/02/29 01:54:32;;;;;;;0.00;0.00;;;24.20;49.60;;;;;;5009374;28;20687;-41
2024/02/29 01:57:03;;;;;;;0.00;0.00;;;24.20;49.50;;;;;;5013346;28;20216;-44
2024/02/29 01:59:35;;;;;;;0.00;0.00;;;24.20;49.50;;;;;;5013164;28;20216;-43
2024/02/29 02:02:06;;;;;;;0.10;0.10;;;24.20;49.50;;;;;;5013650;28;20212;-43
2024/02/29 02:04:36;;;;;;;0.00;0.00;;;24.20;49.30;;;;;;5013432;28;20208;-45
2024/02/29 02:07:11;;;;;;;0.00;0.00;;;24.20;49.20;;;;;;5013340;28;20232;-43
2024/02/29 02:09:42;;;;;;;0.10;0.10;;;24.20;49.30;;;;;;5013127;28;20215;-41
2024/02/29 02:12:13;;;;;;;0.00;0.00;;;24.20;49.20;;;;;;5013240;28;20204;-42
2024/02/29 02:14:44;;;;;;;0.03;0.03;;;24.30;49.30;;;;;;5012893;28;20201;-46
2024/02/29 02:17:14;;;;;;;0.00;0.00;;;24.30;49.20;;;;;;5012897;28;20204;-43
2024/02/29 02:19:46;;;;;;;0.00;0.00;;;24.30;49.80;;;;;;5013036;28;20231;-45
2024/02/29 02:22:19;;;;;;;0.00;0.00;;;24.30;49.00;;;;;;5013614;28;20553;-45
2024/02/29 02:24:49;;;;;;;0.00;0.00;;;24.30;48.90;;;;;;5013326;28;20196;-41
2024/02/29 02:27:20;;;;;;;0.00;0.00;;;24.30;48.80;;;;;;5013767;28;20225;-45
2024/02/29 02:29:51;;;;;;;0.00;0.00;;;24.40;48.70;;;;;;5013033;28;20224;-44
2024/02/29 02:32:21;;;;;;;0.03;0.03;;;24.30;48.70;;;;;;5013020;28;20581;-45
2024/02/29 02:34:52;;;;;;;0.00;0.00;;;24.40;48.80;;;;;;5012938;28;20201;-44
2024/02/29 02:37:25;;;;;;;0.00;0.00;;;24.40;48.70;;;;;;5012989;28;20254;-41
2024/02/29 02:39:55;;;;;;;0.00;0.00;;;24.40;48.60;;;;;;5012682;28;20213;-43
2024/02/29 02:42:26;;;;;;;0.08;0.08;;;24.40;48.60;;;;;;5011574;28;20560;-41
2024/02/29 02:44:57;;;;;;;0.00;0.00;;;24.30;48.60;;;;;;5012092;28;20353;-42
2024/02/29 02:47:28;;;;;;;0.08;0.08;;;24.30;48.70;;;;;;5012279;28;20224;-47
2024/02/29 02:49:58;;;;;;;0.00;0.00;;;24.40;48.80;;;;;;5012115;28;20212;-41
2024/02/29 02:52:31;;;;;;;0.05;0.05;;;24.40;48.80;;;;;;5012369;28;20617;-40
2024/02/29 02:55:02;;;;;;;0.00;0.00;;;24.40;48.80;;;;;;5012145;28;20206;-43
2024/02/29 02:57:32;;;;;;;0.00;0.00;;;24.40;48.80;;;;;;5012169;28;20208;-43
2024/02/29 03:00:03;;;;;;;0.10;0.10;;;24.40;48.80;;;;;;5012035;28;20233;-44
2024/02/29 03:02:34;;;;;;;0.10;0.10;;;24.40;48.70;;;;;;5012133;28;20204;-43
2024/02/29 03:05:05;;;;;;;0.10;0.10;;;24.40;48.60;;;;;;5012260;28;20196;-45
2024/02/29 03:07:38;;;;;;;0.00;0.00;;;24.50;48.70;;;;;;5011721;28;20236;-42
2024/02/29 03:10:10;;;;;;;0.10;0.10;;;24.50;48.70;;;;;;5012407;28;20216;-43
2024/02/29 03:12:41;;;;;;;0.00;0.00;;;24.50;48.70;;;;;;5012548;28;20728;-41
2024/02/29 03:15:12;;;;;;;0.00;0.00;;;24.50;48.70;;;;;;5011863;28;20207;-45
2024/02/29 03:17:43;;;;;;;0.00;0.00;;;24.50;48.70;;;;;;5011431;28;20200;-42
2024/02/29 03:20:14;;;;;;;0.00;0.00;;;24.50;48.70;;;;;;5008160;28;20300;-42
2024/02/29 03:22:46;;;;;;;0.00;0.00;;;24.50;48.70;;;;;;5011718;28;20196;-42
2024/02/29 03:25:17;;;;;;;0.00;0.00;;;24.50;48.60;;;;;;5012339;28;20204;-40
2024/02/29 03:27:48;;;;;;;0.00;0.00;;;24.50;48.70;;;;;;5012507;28;20228;-44
2024/02/29 03:30:19;;;;;;;0.00;0.00;;;24.50;48.70;;;;;;5011254;28;20304;-43
2024/02/29 03:32:49;;;;;;;0.00;0.00;;;24.50;48.70;;;;;;5010154;28;20200;-43
2024/02/29 03:35:20;;;;;;;0.00;0.00;;;24.50;48.70;;;;;;5011737;28;20201;-43
2024/02/29 03:37:53;;;;;;;0.08;0.08;;;24.60;49.20;;;;;;5011252;28;20204;-45
2024/02/29 03:40:24;;;;;;;0.00;0.00;;;24.60;48.70;;;;;;5011551;28;20212;-44
2024/02/29 03:42:54;;;;;;;0.00;0.00;;;24.60;48.70;;;;;;5011982;28;20211;-43
2024/02/29 03:45:25;;;;;;;0.00;0.00;;;24.60;48.70;;;;;;5011599;28;20648;-42
2024/02/29 03:47:55;;;;;;;0.10;0.10;;;24.60;48.70;;;;;;5011386;28;20224;-43
2024/02/29 03:50:26;;;;;;;0.00;0.00;;;24.60;48.70;;;;;;5008433;28;20232;-40
2024/02/29 03:52:59;;;;;;;0.05;0.05;;;24.60;48.70;;;;;;5011679;28;20267;-43
2024/02/29 03:55:29;;;;;;;0.00;0.00;;;24.60;48.80;;;;;;5010714;28;20404;-43
2024/02/29 03:58:00;;;;;;;0.00;0.00;;;24.70;48.80;;;;;;5011366;28;20204;-43
2024/02/29 04:00:31;;;;;;;0.00;0.00;;;24.70;48.80;;;;;;5011630;28;20600;-39
2024/02/29 04:03:02;;;;;;;0.00;0.00;;;24.70;48.70;;;;;;5011721;28;20211;-42
2024/02/29 04:05:32;;;;;;;0.00;0.00;;;24.70;48.60;;;;;;5011788;28;20232;-42
2024/02/29 04:08:10;;;;;;;0.00;0.00;;;24.70;48.50;;;;;;5011357;28;20235;-41
2024/02/29 04:10:44;;;;;;;0.00;0.00;;;24.80;48.60;;;;;;5011547;28;20212;-43
2024/02/29 04:13:15;;;;;;;0.00;0.00;;;24.80;48.60;;;;;;5011467;28;20232;-43
2024/02/29 04:15:46;;;;;;;0.00;0.00;;;24.80;48.50;;;;;;5011447;28;20201;-40
2024/02/29 04:18:16;;;;;;;0.00;0.00;;;24.80;48.50;;;;;;5011430;28;20205;-43
2024/02/29 04:20:47;;;;;;;0.00;0.00;;;24.80;48.40;;;;;;5011313;28;20213;-41
2024/02/29 04:23:20;;;;;;;0.00;0.00;;;24.80;48.40;;;;;;5011596;28;20680;-42
2024/02/29 04:25:50;;;;;;;0.10;0.10;;;24.80;48.40;;;;;;5011447;28;20216;-40
2024/02/29 04:28:21;;;;;;;0.00;0.00;;;24.80;48.40;;;;;;5011533;28;20232;-43
2024/02/29 04:30:52;;;;;;;0.10;0.10;;;24.80;48.40;;;;;;5010837;28;20232;-43
2024/02/29 04:33:22;;;;;;;0.05;0.05;;;24.90;48.50;;;;;;5011020;28;20200;-41
2024/02/29 04:35:53;;;;;;;0.10;0.10;;;24.90;48.40;;;;;;5010938;28;20204;-42
2024/02/29 04:38:25;;;;;;;0.00;0.00;;;24.90;48.40;;;;;;5010955;28;20201;-40
2024/02/29 04:40:56;;;;;;;0.00;0.00;;;24.90;48.40;;;;;;5011445;28;20228;-40
2024/02/29 04:43:27;;;;;;;0.00;0.00;;;24.90;48.40;;;;;;5011326;28;20244;-41
2024/02/29 04:45:57;;;;;;;0.00;0.00;;;24.90;48.30;;;;;;5011002;28;20201;-43
2024/02/29 04:48:28;;;;;;;0.00;0.00;;;24.90;48.30;;;;;;5010667;28;20224;-42
2024/02/29 04:50:59;;;;;;;0.10;0.10;;;24.90;48.20;;;;;;5010525;28;20399;-42
2024/02/29 04:53:31;;;;;;;0.00;0.00;;;25.00;48.20;;;;;;5011027;28;20197;-43
2024/02/29 04:56:04;;;;;;;0.00;0.00;;;25.00;48.10;;;;;;5011191;28;20205;-44
2024/02/29 04:58:34;;;;;;;0.00;0.00;;;25.00;48.10;;;;;;5011298;28;20205;-43
2024/02/29 05:01:06;;;;;;;0.00;0.00;;;25.00;48.10;;;;;;5010789;28;20216;-44
2024/02/29 05:03:37;;;;;;;0.00;0.00;;;25.10;48.00;;;;;;5011004;28;20208;-42
2024/02/29 05:06:14;;;;;;;0.00;0.00;;;25.10;48.00;;;;;;5011201;28;20204;-47
2024/02/29 05:08:47;;;;;;;0.00;0.00;;;25.10;48.00;;;;;;5014590;28;20197;-40
2024/02/29 05:11:17;;;;;;;0.00;0.00;;;25.10;47.90;;;;;;5014296;28;20236;-46
2024/02/29 05:13:48;;;;;;;0.00;0.00;;;25.10;47.90;;;;;;5014183;28;20233;-42
2024/02/29 05:16:20;;;;;;;0.08;0.08;;;25.10;47.90;;;;;;5014606;28;20553;-41
2024/02/29 05:18:51;;;;;;;0.00;0.00;;;25.10;47.80;;;;;;5014429;28;20200;-44
2024/02/29 05:21:22;;;;;;;0.00;0.00;;;25.10;47.80;;;;;;5013522;28;20811;-42
2024/02/29 05:23:54;;;;;;;0.00;0.00;;;25.10;47.90;;;;;;5014462;28;20236;-43
2024/02/29 05:26:25;;;;;;;0.05;0.05;;;25.10;47.80;;;;;;5011851;28;20658;-43
2024/02/29 05:28:56;;;;;;;0.10;0.10;;;25.10;47.80;;;;;;5005613;28;20529;-46
2024/02/29 05:31:26;;;;;;;0.00;0.00;;;25.10;47.80;;;;;;4994833;28;20217;-43
2024/02/29 05:33:57;;;;;;;0.00;0.00;;;25.10;47.80;;;;;;4994327;28;20240;-41
2024/02/29 05:36:27;;;;;;;0.00;0.00;;;25.10;47.80;;;;;;4999906;28;20212;-41
2024/02/29 05:39:00;;;;;;;0.05;0.05;;;25.10;47.80;;;;;;5014137;28;20457;-43
2024/02/29 05:41:31;;;;;;;0.00;0.00;;;25.10;47.80;;;;;;5013994;28;20232;-43
2024/02/29 05:44:01;;;;;;;0.00;0.00;;;25.10;47.70;;;;;;5013578;28;20200;-44
2024/02/29 05:46:32;;;;;;;0.00;0.00;;;25.10;47.60;;;;;;5010321;28;20555;-42
2024/02/29 05:49:03;;;;;;;0.00;0.00;;;25.20;47.50;;;;;;5013378;28;20235;-42
2024/02/29 05:51:33;;;;;;;0.00;0.00;;;25.10;47.50;;;;;;5013257;28;20221;-44
2024/02/29 05:54:06;;;;;;;0.10;0.10;;;25.20;47.50;;;;;;5013707;28;20189;-43
2024/02/29 05:56:37;;;;;;;0.10;0.10;;;25.20;47.50;;;;;;5013366;28;20200;-43
2024/02/29 05:59:08;;;;;;;0.00;0.00;;;25.20;47.50;;;;;;5013079;28;20284;-44
2024/02/29 06:01:39;;;;;;;0.00;0.00;;;25.10;47.40;;;;;;5013160;28;20653;-44
2024/02/29 06:04:10;;;;;;;0.00;0.00;;;25.10;47.40;;;;;;5013515;28;20243;-43
2024/02/29 06:06:40;;;;;;;0.00;0.00;;;25.10;47.40;;;;;;5012614;28;20208;-44
2024/02/29 06:09:14;;;;;;;0.00;0.00;;;25.10;47.30;;;;;;5013471;28;20208;-44
2024/02/29 06:11:45;;;;;;;0.00;0.00;;;25.10;47.40;;;;;;5013504;28;20308;-42
2024/02/29 06:14:17;;;;;;;0.00;0.00;;;25.10;47.30;;;;;;5013218;28;20196;-45
2024/02/29 06:16:47;;;;;;;0.00;0.00;;;25.10;47.30;;;;;;5012902;28;20237;-45
2024/02/29 06:19:18;;;;;;;0.08;0.08;;;25.10;47.30;;;;;;4996567;28;20194;-43
2024/02/29 06:21:48;;;;;;;0.00;0.00;;;25.10;47.30;;;;;;4993493;28;20247;-44
2024/02/29 06:24:21;;;;;;;0.00;0.00;;;25.10;47.30;;;;;;4993319;28;20197;-43
2024/02/29 06:26:52;;;;;;;0.00;0.00;;;25.10;47.30;;;;;;4993714;28;20215;-41
2024/02/29 06:29:22;;;;;;;0.00;0.00;;;25.10;47.30;;;;;;4992703;28;20197;-42
2024/02/29 06:31:53;;;;;;;0.00;0.00;;;25.00;47.20;;;;;;4992670;28;20209;-42
2024/02/29 06:34:24;;;;;;;0.00;0.00;;;25.00;47.20;;;;;;4993236;28;20197;-44
2024/02/29 06:36:54;;;;;;;0.00;0.00;;;25.00;47.20;;;;;;5001943;28;20216;-43
2024/02/29 06:39:27;;;;;;;0.00;0.00;;;25.00;47.30;;;;;;5012155;28;20212;-44
2024/02/29 06:41:57;;;;;;;0.00;0.00;;;25.00;47.30;;;;;;5012602;28;20677;-44
2024/02/29 06:44:28;;;;;;;0.00;0.00;;;25.00;47.30;;;;;;5010267;28;20216;-41
2024/02/29 06:46:59;;;;;;;0.00;0.00;;;25.00;47.30;;;;;;5012330;28;20196;-42
2024/02/29 06:49:29;;;;;;;0.00;0.00;;;24.90;47.20;;;;;;5011721;28;20199;-43
2024/02/29 06:55:21;;;;;;;0.00;0.00;;;24.90;47.30;;;;;;5013614;28;20204;-46
2024/02/29 06:57:52;;;;;;;0.00;0.00;;;24.90;47.20;;;;;;5012354;28;20193;-44
2024/02/29 07:00:24;;;;;;;0.00;0.00;;;24.90;47.30;;;;;;5012108;28;20217;-43
2024/02/29 07:02:55;;;;;;;0.00;0.00;;;24.90;47.30;;;;;;5012117;28;20239;-43
2024/02/29 07:05:26;;;;;;;0.00;0.00;;;24.90;47.40;;;;;;5011367;28;20197;-46
2024/02/29 07:07:57;;;;;;;0.00;0.00;;;24.80;47.90;;;;;;5011859;28;20270;-43
2024/02/29 07:10:30;;;;;;;0.00;0.00;;;24.80;47.30;;;;;;5011953;28;20216;-46
2024/02/29 07:13:01;;;;;;;0.00;0.00;;;24.80;47.30;;;;;;5012333;28;20201;-42
2024/02/29 07:15:32;;;;;;;0.00;0.00;;;24.70;47.30;;;;;;5012183;28;20228;-46
2024/02/29 07:18:03;;;;;;;0.05;0.05;;;24.70;47.30;;;;;;5012125;28;20794;-44
2024/02/29 07:20:34;;;;;;;0.00;0.00;;;24.70;47.30;;;;;;5007865;28;20209;-42
2024/02/29 07:23:04;;;;;;;0.00;0.00;;;24.70;47.40;;;;;;5012162;28;20204;-46
2024/02/29 07:25:37;;;;;;;0.00;0.00;;;24.70;47.40;;;;;;5012126;28;20204;-43
2024/02/29 07:28:09;;;;;;;0.00;0.00;;;24.70;47.40;;;;;;5009794;28;20227;-40
2024/02/29 07:30:40;;;;;;;0.00;0.00;;;24.70;48.10;;;;;;5011617;28;20217;-41
2024/02/29 07:33:11;;;;;;;0.00;0.00;;;24.70;47.40;;;;;;5011589;28;20192;-44
2024/02/29 07:35:41;;;;;;;0.00;0.00;;;24.70;47.50;;;;;;5011296;28;20197;-41
2024/02/29 07:38:12;;;;;;;0.00;0.00;;;24.60;47.40;;;;;;4991739;28;20202;-45
2024/02/29 07:40:45;;;;;;;0.00;0.00;;;24.60;47.50;;;;;;4992061;28;20217;-43
2024/02/29 07:43:15;;;;;;;0.10;0.10;;;24.60;47.50;;;;;;4992097;28;20665;-43
2024/02/29 07:45:46;;;;;;;0.00;0.00;;;24.60;47.50;;;;;;4991734;28;20205;-40
2024/02/29 07:48:18;;;;;;;0.00;0.00;;;24.60;47.50;;;;;;4994075;28;20220;-41
2024/02/29 07:50:48;;;;;;;0.00;0.00;;;24.60;47.50;;;;;;4991138;28;20228;-41
2024/02/29 07:53:19;;;;;;;0.00;0.00;;;24.50;47.50;;;;;;4991768;28;20197;-40
2024/02/29 07:55:51;;;;;;;0.00;0.00;;;24.50;47.50;;;;;;4992068;28;20205;-43
2024/02/29 07:58:22;;;;;;;0.00;0.00;;;24.50;47.50;;;;;;4992188;28;20197;-41
2024/02/29 08:00:53;;;;;;;0.10;0.10;;;24.50;47.50;;;;;;4991736;28;20272;-44
2024/02/29 08:03:24;;;;;;;0.00;0.00;;;24.50;48.10;;;;;;4991051;28;20209;-42
2024/02/29 08:05:55;;;;;;;0.00;0.00;;;24.50;47.60;;;;;;4992768;28;20209;-41
2024/02/29 08:08:25;;;;;;;0.03;0.03;;;24.50;47.60;;;;;;5011642;28;20270;-43
2024/02/29 08:10:58;;;;;;;0.00;0.00;;;24.40;47.50;;;;;;5011318;28;20228;-43
2024/02/29 08:13:29;;;;;;;0.00;0.00;;;24.50;47.60;;;;;;5011477;28;20193;-40
2024/02/29 08:15:59;;;;;;;0.00;0.00;;;24.40;47.60;;;;;;5010733;28;20196;-44
2024/02/29 08:18:30;;;;;;;0.00;0.00;;;24.40;47.60;;;;;;5011145;28;20611;-41
2024/02/29 08:21:01;;;;;;;0.10;0.10;;;24.40;47.50;;;;;;5011466;28;20221;-41
2024/02/29 08:23:31;;;;;;;0.00;0.00;;;24.40;47.60;;;;;;5011228;28;20200;-43
2024/02/29 08:26:09;;;;;;;0.00;0.00;;;24.40;47.60;;;;;;5010862;28;20197;-41
2024/02/29 08:28:42;;;;;;;0.10;0.10;;;24.40;47.60;;;;;;5010777;28;20228;-40
2024/02/29 08:31:12;;;;;;;0.00;0.00;;;24.40;47.50;;;;;;5010571;28;20225;-43
2024/02/29 08:33:43;;;;;;;0.00;0.00;;;24.30;47.50;;;;;;5010316;28;20650;-41
2024/02/29 08:36:14;;;;;;;0.00;0.00;;;24.30;47.50;;;;;;5010674;28;20208;-39
2024/02/29 08:38:45;;;;;;;0.10;0.10;;;24.30;47.50;;;;;;5011204;28;20661;-40
2024/02/29 08:41:18;;;;;;;0.00;0.00;;;24.30;47.50;;;;;;5009576;28;20728;-42
2024/02/29 08:43:49;;;;;;;0.00;0.00;;;24.30;47.50;;;;;;5014813;28;20283;-41
2024/02/29 08:46:19;;;;;;;0.00;0.00;;;24.30;47.50;;;;;;5014541;28;20208;-42
2024/02/29 08:48:50;;;;;;;0.00;0.00;;;24.20;47.40;;;;;;5014419;28;20331;-43
2024/02/29 08:51:21;;;;;;;0.00;0.00;;;24.30;47.50;;;;;;5014809;28;20217;-43
2024/02/29 08:53:51;;;;;;;0.00;0.00;;;24.20;47.40;;;;;;4999778;28;20685;-44
2024/02/29 08:56:24;;;;;;;0.10;0.10;;;24.20;47.40;;;;;;4995160;28;20206;-40
2024/02/29 08:58:54;;;;;;;0.00;0.00;;;24.20;47.40;;;;;;4995267;28;20676;-40
2024/02/29 09:01:26;;;;;;;0.00;0.00;;;24.20;47.40;;;;;;4994899;28;20225;-43
2024/02/29 09:03:56;;;;;;;0.00;0.00;;;24.20;47.50;;;;;;4994982;28;20201;-39
2024/02/29 09:06:27;;;;;;;0.00;0.00;;;24.10;47.40;;;;;;5000547;28;20201;-39
2024/02/29 09:08:58;;;;;;;0.00;0.00;;;24.20;47.50;;;;;;5014164;28;20224;-40
2024/02/29 09:11:30;;;;;;;0.00;0.00;;;24.10;47.40;;;;;;5014347;28;20220;-40
2024/02/29 09:14:01;;;;;;;0.10;0.10;;;24.10;47.40;;;;;;5014507;28;20657;-43
2024/02/29 09:16:32;;;;;;;0.00;0.00;;;24.10;47.40;;;;;;5014558;28;20236;-41
2024/02/29 09:19:04;;;;;;;0.00;0.00;;;24.10;47.40;;;;;;5014172;28;20295;-41
2024/02/29 09:21:35;;;;;;;0.00;0.00;;;24.00;47.40;;;;;;5014726;28;20777;-41
2024/02/29 09:24:07;;;;;;;0.00;0.00;;;24.00;47.40;;;;;;5011885;28;20199;-41
2024/02/29 09:26:39;;;;;;;0.00;0.00;;;24.00;47.40;;;;;;5013298;28;20229;-41
2024/02/29 09:29:10;;;;;;;0.00;0.00;;;24.00;47.40;;;;;;5011723;28;20216;-41
2024/02/29 09:31:41;;;;;;;0.00;0.00;;;24.00;47.40;;;;;;5005395;28;20194;-42
2024/02/29 09:34:11;;;;;;;0.10;0.10;;;24.00;47.40;;;;;;4994072;28;20650;-44
2024/02/29 09:36:42;;;;;;;0.00;0.00;;;23.90;47.40;;;;;;5002117;28;20223;-42
2024/02/29 09:39:13;;;;;;;0.05;0.05;;;23.90;47.40;;;;;;5013467;28;20197;-41
2024/02/29 09:41:45;;;;;;;0.00;0.00;;;23.90;47.40;;;;;;5013586;28;20197;-43
2024/02/29 09:44:17;;;;;;;0.00;0.00;;;23.90;47.40;;;;;;5013969;28;20205;-42
2024/02/29 09:46:50;;;;;;;0.00;0.00;;;23.80;47.40;;;;;;5011509;28;20284;-45
2024/02/29 09:49:20;;;;;;;0.00;0.00;;;23.80;47.40;;;;;;4993637;28;20225;-43
2024/02/29 09:51:51;;;;;;;0.00;0.00;;;23.80;47.40;;;;;;4994480;28;20709;-44
2024/02/29 09:54:22;;;;;;;0.00;0.00;;;23.80;47.50;;;;;;4994109;28;20210;-43
2024/02/29 09:56:55;;;;;;;0.00;0.00;;;23.70;47.40;;;;;;4993744;28;20193;-43
2024/02/29 09:59:26;;;;;;;0.00;0.00;;;23.70;47.40;;;;;;4993350;28;20205;-41
2024/02/29 10:01:57;;;;;;;0.00;0.00;;;23.70;47.40;;;;;;4993407;28;20201;-39
2024/02/29 10:04:28;;;;;;;0.00;0.00;;;23.70;47.40;;;;;;4993320;28;20747;-44
2024/02/29 10:06:59;;;;;;;0.10;0.10;;;23.70;47.40;;;;;;5003958;28;20270;-41
2024/02/29 10:09:30;;;;;;;0.03;0.03;;;23.70;47.40;;;;;;5013423;28;20231;-43
2024/02/29 10:12:02;;;;;;;0.10;0.10;;;23.60;47.40;;;;;;5013480;28;20240;-44
2024/02/29 10:14:34;;;;;;;0.10;0.10;;;23.60;47.40;;;;;;5012719;28;20712;-43
2024/02/29 10:17:05;;;;;;;0.00;0.00;;;23.60;47.40;;;;;;5012519;28;20301;-40
2024/02/29 10:19:38;;;;;;;0.00;0.00;;;23.60;47.40;;;;;;5012963;28;20247;-42
2024/02/29 10:22:08;;;;;;;0.00;0.00;;;23.50;47.30;;;;;;5013387;28;20200;-42
2024/02/29 10:24:39;;;;;;;0.00;0.00;;;23.50;47.40;;;;;;4993687;28;20201;-41
2024/02/29 10:27:12;;;;;;;0.00;0.00;;;23.50;47.40;;;;;;4993313;28;20194;-41
2024/02/29 10:29:44;;;;;;;0.00;0.00;;;23.50;47.40;;;;;;4992524;28;20233;-44
2024/02/29 10:32:17;;;;;;;0.00;0.00;;;23.50;47.40;;;;;;5009926;28;20204;-44
2024/02/29 10:34:47;;;;;;;0.00;0.00;;;23.40;47.40;;;;;;5012492;28;20570;-41
2024/02/29 10:37:18;;;;;;;0.00;0.00;;;23.40;47.40;;;;;;5013020;28;20201;-42
2024/02/29 10:39:49;;;;;;;0.00;0.00;;;23.40;47.40;;;;;;5013638;28;20219;-43
2024/02/29 10:42:23;;;;;;;0.08;0.08;;;23.30;47.40;;;;;;5007680;28;20200;-43
2024/02/29 10:44:55;;;;;;;0.00;0.00;;;23.30;47.40;;;;;;5008310;28;20204;-39
2024/02/29 10:47:29;;;;;;;0.00;0.00;;;23.30;47.50;;;;;;4988973;28;20213;-39
2024/02/29 10:50:05;;;;;;;0.00;0.00;;;23.30;47.50;;;;;;4989555;28;20603;-45
2024/02/29 10:52:40;;;;;;;0.00;0.00;;;23.30;47.60;;;;;;4989189;28;20264;-45
2024/02/29 10:55:14;;;;;;;0.05;0.05;;;23.30;47.60;;;;;;4989024;28;20201;-45
2024/02/29 10:57:53;;;;;;;0.00;0.00;;;23.30;47.60;;;;;;4999661;28;20673;-48
2024/02/29 11:00:24;;;;;;;0.00;0.00;;;23.20;47.50;;;;;;5028389;28;20231;-43
2024/02/29 11:02:55;;;;;;;0.00;0.00;;;23.20;47.50;;;;;;5028312;28;20212;-40
2024/02/29 11:05:27;;;;;;;0.00;0.00;;;23.20;47.50;;;;;;5027898;28;20204;-38
2024/02/29 11:07:58;;;;;;;0.00;0.00;;;23.20;47.50;;;;;;5010580;28;20571;-44
2024/02/29 11:10:29;;;;;;;0.00;0.00;;;23.10;47.50;;;;;;5014499;28;20733;-47
2024/02/29 11:13:08;;;;;;;0.00;0.00;;;23.10;47.50;;;;;;5027975;28;20208;-48
2024/02/29 11:15:46;;;;;;;0.00;0.00;;;23.10;47.50;;;;;;5027513;28;20214;-43
2024/02/29 11:18:24;;;;;;;0.00;0.00;;;23.10;47.50;;;;;;5028765;28;20991;-39
2024/02/29 11:21:07;;;;;;;0.10;0.10;;;23.10;47.50;;;;;;5007575;28;20829;-43
2024/02/29 11:23:39;;;;;;;0.00;0.00;;;23.00;47.50;;;;;;5007523;28;20680;-45
2024/02/29 11:26:10;;;;;;;0.10;0.10;;;23.00;47.40;;;;;;5025260;28;20196;-42
2024/02/29 11:28:45;;;;;;;0.00;0.00;;;23.00;47.60;;;;;;5028586;28;20235;-45
2024/02/29 11:31:18;;;;;;;0.00;0.00;;;23.00;47.60;;;;;;5003998;28;20630;-46
2024/02/29 11:33:49;;;;;;;0.00;0.00;;;22.90;47.50;;;;;;4987648;28;20309;-48
2024/02/29 11:36:21;;;;;;;0.00;0.00;;;22.90;47.50;;;;;;4993288;28;20201;-45
2024/02/29 11:38:51;;;;;;;0.00;0.00;;;22.90;47.50;;;;;;5020056;28;20189;-47
2024/02/29 11:41:22;;;;;;;0.00;0.00;;;22.90;47.50;;;;;;5006957;28;20651;-44
2024/02/29 11:43:55;;;;;;;0.00;0.00;;;22.90;47.60;;;;;;5004525;28;20208;-44
2024/02/29 11:46:26;;;;;;;0.00;0.00;;;22.90;47.60;;;;;;5008137;28;20208;-44
2024/02/29 11:48:56;;;;;;;0.03;0.03;;;22.80;47.50;;;;;;5008433;28;20232;-44
2024/02/29 11:51:28;;;;;;;0.10;0.10;;;22.80;47.50;;;;;;5021384;28;20220;-47
2024/02/29 11:53:59;;;;;;;0.00;0.00;;;22.80;47.50;;;;;;5027600;28;20204;-46
2024/02/29 11:56:31;;;;;;;0.10;0.10;;;22.80;47.50;;;;;;5027249;28;20215;-40
2024/02/29 11:59:09;;;;;;;0.10;0.10;;;22.80;47.50;;;;;;5008874;28;20295;-44
2024/02/29 12:01:40;;;;;;;0.00;0.00;;;22.80;47.50;;;;;;5008021;28;20636;-45
2024/02/29 12:04:10;;;;;;;0.00;0.00;;;22.70;47.40;;;;;;5015888;28;20222;-47
2024/02/29 12:06:43;;;;;;;0.00;0.00;;;22.70;47.50;;;;;;5019846;28;20208;-42
2024/02/29 12:09:15;;;;;;;0.10;0.10;;;22.70;47.50;;;;;;4992610;28;20275;-45
2024/02/29 12:11:48;;;;;;;0.00;0.00;;;22.70;47.50;;;;;;4987994;28;20233;-43
2024/02/29 12:14:22;;;;;;;0.10;0.10;;;22.60;47.40;;;;;;4994051;28;20204;-44
2024/02/29 12:16:53;;;;;;;0.10;0.10;;;22.60;47.50;;;;;;5023153;28;20199;-45
2024/02/29 12:19:24;;;;;;;0.10;0.10;;;22.60;47.50;;;;;;5024992;28;20803;-44
2024/02/29 12:21:55;;;;;;;0.00;0.00;;;22.60;47.60;;;;;;5008936;28;20288;-45
2024/02/29 12:24:26;;;;;;;0.10;0.10;;;22.60;47.60;;;;;;5005571;28;20186;-45
2024/02/29 12:26:57;;;;;;;0.00;0.00;;;22.60;47.60;;;;;;5004519;28;20276;-42
2024/02/29 12:29:29;;;;;;;0.10;0.10;;;22.60;47.60;;;;;;5003875;28;20221;-41
2024/02/29 12:32:00;;;;;;;0.00;0.00;;;22.60;47.60;;;;;;5004051;28;20185;-42
2024/02/29 12:34:31;;;;;;;0.10;0.10;;;22.50;47.60;;;;;;5005263;28;20224;-44
2024/02/29 12:37:03;;;;;;;0.00;0.00;;;22.50;47.70;;;;;;5004811;28;20200;-46
2024/02/29 12:39:33;;;;;;;0.10;0.10;;;22.50;47.70;;;;;;5003434;28;20230;-43
2024/02/29 12:42:04;;;;;;;0.00;0.00;;;22.50;47.70;;;;;;5003792;28;20199;-45
2024/02/29 12:44:38;;;;;;;0.00;0.00;;;22.50;47.70;;;;;;5003405;28;20654;-43
2024/02/29 12:47:09;;;;;;;0.10;0.10;;;22.50;47.70;;;;;;5003212;28;20200;-49
2024/02/29 12:49:39;;;;;;;0.10;0.10;;;22.40;47.70;;;;;;5003854;28;20224;-42
2024/02/29 12:52:10;;;;;;;0.10;0.10;;;22.40;47.70;;;;;;5004692;28;20193;-46
2024/02/29 12:54:41;;;;;;;0.10;0.10;;;22.40;47.70;;;;;;5003933;28;20650;-44
2024/02/29 12:57:12;;;;;;;0.00;0.00;;;22.40;47.70;;;;;;5003563;28;20194;-42
2024/02/29 12:59:44;;;;;;;0.00;0.00;;;22.40;47.70;;;;;;5003978;28;20217;-44
2024/02/29 13:02:15;;;;;;;0.00;0.00;;;22.40;47.70;;;;;;5003639;28;20295;-47
2024/02/29 13:04:46;;;;;;;0.03;0.03;;;22.40;47.70;;;;;;5011462;28;20192;-42
2024/02/29 13:07:17;;;;;;;0.10;0.10;;;22.40;47.70;;;;;;5014645;28;20212;-41
2024/02/29 13:09:47;;;;;;;0.00;0.00;;;22.40;47.70;;;;;;5014634;28;20233;-46
2024/02/29 13:12:18;;;;;;;0.10;0.10;;;22.30;47.70;;;;;;5014694;28;20212;-45